TimeEST,TemperatureF,Dew PointF,Humidity,Sea Level PressureIn,VisibilityMPH,Wind Direction,Wind SpeedMPH,Gust SpeedMPH,PrecipitationIn,Events,Conditions,WindDirDegrees,DateUTC
12:52 AM,64.0,61.0,90,29.92,10.0,SSW,9.2,-,0.00,,Overcast,210,2013-12-06 05:52:00
1:52 AM,64.0,61.0,90,29.89,10.0,South,12.7,-,N/A,,Overcast,190,2013-12-06 06:52:00
1:59 AM,64.4,60.8,88,29.90,10.0,South,10.4,-,N/A,,Overcast,180,2013-12-06 06:59:00
2:52 AM,64.0,61.0,90,29.89,10.0,SSW,10.4,-,0.01,Rain,Light Rain,200,2013-12-06 07:52:00
2:59 AM,64.4,60.8,88,29.89,10.0,SSW,11.5,-,0.00,,Overcast,200,2013-12-06 07:59:00
3:52 AM,64.9,61.0,87,29.88,10.0,SSW,11.5,-,0.00,,Overcast,200,2013-12-06 08:52:00
4:52 AM,64.9,62.1,90,29.90,10.0,SSW,10.4,-,0.00,Rain,Light Rain,210,2013-12-06 09:52:00
5:52 AM,60.1,55.9,86,29.93,10.0,NW,19.6,23.0,0.00,,Overcast,320,2013-12-06 10:52:00
6:03 AM,55.4,51.8,88,29.94,10.0,NW,16.1,-,N/A,,Overcast,320,2013-12-06 11:03:00
6:52 AM,52.0,48.0,86,29.98,10.0,NW,13.8,19.6,0.00,,Overcast,320,2013-12-06 11:52:00
7:27 AM,50.0,46.4,87,30.00,3.0,NW,9.2,18.4,0.00,Rain,Light Rain,310,2013-12-06 12:27:00
7:52 AM,50.0,46.0,86,30.02,3.0,NNW,13.8,19.6,0.00,,Overcast,330,2013-12-06 12:52:00
8:52 AM,46.9,44.1,90,30.07,3.0,NNW,17.3,25.3,0.00,Rain,Light Rain,330,2013-12-06 13:52:00
9:07 AM,46.4,42.8,87,30.08,8.0,NNW,15.0,23.0,0.00,Rain,Light Rain,330,2013-12-06 14:07:00
9:52 AM,46.9,42.1,83,30.09,10.0,NNW,12.7,17.3,0.00,,Overcast,330,2013-12-06 14:52:00
9:59 AM,46.4,42.8,87,30.10,10.0,NW,8.1,-,N/A,,Overcast,320,2013-12-06 14:59:00
10:49 AM,46.4,42.8,87,30.09,3.0,NNW,16.1,-,0.01,Rain,Rain,340,2013-12-06 15:49:00
10:52 AM,45.0,42.1,90,30.07,3.0,North,15.0,-,0.02,Rain,Rain,350,2013-12-06 15:52:00
11:17 AM,44.6,41.0,87,30.09,1.5,NNW,11.5,-,0.05,Rain,Rain,330,2013-12-06 16:17:00
11:23 AM,44.6,42.8,93,30.06,2.0,NNE,6.9,-,0.20,Rain,Heavy Rain,30,2013-12-06 16:23:00
11:52 AM,44.1,41.0,89,30.04,4.0,North,10.4,-,0.26,Rain,Rain,10,2013-12-06 16:52:00
12:01 PM,44.6,41.0,87,30.03,10.0,North,11.5,-,0.01,Rain,Light Rain,360,2013-12-06 17:01:00
12:43 PM,44.6,41.0,87,30.06,10.0,NNW,12.7,-,0.01,Rain,Light Rain,340,2013-12-06 17:43:00
12:52 PM,45.0,41.0,86,30.05,10.0,North,10.4,-,0.01,,Overcast,350,2013-12-06 17:52:00
1:47 PM,44.6,41.0,87,30.06,2.5,NNW,10.4,-,0.04,Rain,Rain,330,2013-12-06 18:47:00
1:52 PM,44.1,41.0,89,30.06,2.5,NNW,12.7,-,0.06,Rain,Light Rain,340,2013-12-06 18:52:00
2:01 PM,44.6,41.0,87,30.04,3.0,North,11.5,-,0.00,Rain,Light Rain,350,2013-12-06 19:01:00
2:13 PM,44.6,41.0,87,30.02,3.0,North,8.1,-,0.01,Rain,Light Rain,10,2013-12-06 19:13:00
2:27 PM,44.6,41.0,87,30.03,3.0,North,6.9,-,0.01,Rain,Light Rain,350,2013-12-06 19:27:00
2:42 PM,44.6,41.0,87,30.03,6.0,North,10.4,-,0.01,Rain,Light Rain,350,2013-12-06 19:42:00
2:52 PM,44.1,41.0,89,30.05,3.0,NNW,9.2,-,0.02,Rain,Light Rain,330,2013-12-06 19:52:00
2:57 PM,44.6,41.0,87,30.04,1.8,NNW,8.1,-,0.02,Rain,Heavy Rain,330,2013-12-06 19:57:00
3:26 PM,42.8,41.0,93,30.04,2.5,North,9.2,-,0.18,Rain,Light Rain,350,2013-12-06 20:26:00
3:34 PM,44.6,41.0,87,30.05,3.0,North,10.4,-,0.18,Rain,Light Rain,350,2013-12-06 20:34:00
3:52 PM,44.1,41.0,89,30.06,3.0,Variable,6.9,-,0.20,Rain,Light Rain,0,2013-12-06 20:52:00
4:13 PM,44.6,41.0,87,30.05,2.5,North,6.9,-,0.01,Rain,Light Rain,350,2013-12-06 21:13:00
4:31 PM,44.6,41.0,87,30.05,4.0,North,10.4,-,0.02,Rain,Light Rain,350,2013-12-06 21:31:00
4:52 PM,44.1,41.0,89,30.04,4.0,North,9.2,-,0.03,Rain,Light Rain,360,2013-12-06 21:52:00
5:52 PM,43.0,41.0,93,30.09,5.0,North,10.4,-,0.05,Rain,Light Rain,350,2013-12-06 22:52:00
6:23 PM,42.8,39.2,87,30.07,6.0,North,10.4,19.6,0.01,Rain,Light Rain,10,2013-12-06 23:23:00
6:38 PM,42.8,39.2,87,30.09,5.0,North,6.9,-,0.02,Rain,Rain,360,2013-12-06 23:38:00
6:52 PM,43.0,39.9,89,30.11,7.0,NNW,10.4,-,0.04,Rain,Light Rain,340,2013-12-06 23:52:00
7:52 PM,42.1,39.9,92,30.09,7.0,North,10.4,-,0.05,Rain,Light Rain,10,2013-12-07 00:52:00
8:32 PM,42.8,39.2,87,30.10,5.0,North,13.8,-,0.01,Rain,Rain,350,2013-12-07 01:32:00
8:40 PM,42.8,39.2,87,30.08,4.0,North,10.4,-,0.02,Rain,Light Rain,10,2013-12-07 01:40:00
8:49 PM,42.8,39.2,87,30.08,4.0,North,12.7,-,0.03,Rain,Light Rain,360,2013-12-07 01:49:00
8:52 PM,42.1,39.0,89,30.10,5.0,North,9.2,18.4,0.03,Rain,Light Rain,360,2013-12-07 01:52:00
9:07 PM,41.0,37.4,87,30.11,10.0,NNE,10.4,-,0.00,Rain,Light Rain,30,2013-12-07 02:07:00
9:17 PM,41.0,37.4,87,30.13,4.0,NNW,11.5,-,0.02,Rain,Heavy Rain,340,2013-12-07 02:17:00
9:52 PM,39.9,37.9,93,30.19,5.0,NNW,11.5,20.7,0.07,Rain,Light Rain,330,2013-12-07 02:52:00
10:00 PM,39.2,37.4,93,30.16,2.5,North,9.2,-,0.02,Rain,Rain,10,2013-12-07 03:00:00
10:52 PM,39.0,36.0,89,30.18,6.0,North,11.5,19.6,0.07,Rain,Light Rain,360,2013-12-07 03:52:00
11:14 PM,39.2,35.6,87,30.13,6.0,NNE,9.2,-,0.01,Rain,Light Rain,20,2013-12-07 04:14:00
11:52 PM,37.9,35.1,89,30.14,6.0,North,11.5,-,0.04,Rain,Light Rain,360,2013-12-07 04:52:00